Time;durP1;ratioP1;P1;durP2;ratioP2;P2;SDS_P1;SDS_P2;PMS_P1;PMS_P2;Temp;Humidity;BMP_temperature;BMP_pressure;BME280_temperature;BME280_humidity;BME280_pressure;Samples;Min_cycle;Max_cycle;Signal;HPM_P1;HPM_P2
2023/08/12 00:01:27;;;;;;;6.55;3.33;;;;;;;19.11;93.87;100277.89;1705559;80;22003;-49
2023/08/12 00:07:04;;;;;;;4.90;2.42;;;;;;;19.11;93.80;100276.50;1706875;81;21385;-48
2023/08/12 00:12:41;;;;;;;4.75;2.40;;;;;;;19.13;93.90;100283.20;1699667;80;21223;-48
2023/08/12 00:15:47;;;;;;;2.77;2.00;;;;;;;19.13;93.88;100284.59;1658731;80;21235;-48
2023/08/12 00:18:53;;;;;;;3.20;2.20;;;;;;;19.15;93.94;100290.77;1709096;80;21359;-48
2023/08/12 00:21:59;;;;;;;2.25;1.95;;;;;;;19.15;94.01;100287.42;1707391;78;21208;-48
2023/08/12 00:25:04;;;;;;;3.12;2.50;;;;;;;19.16;94.02;100293.83;1710483;78;21800;-48
2023/08/12 00:28:12;;;;;;;2.27;2.08;;;;;;;19.16;94.04;100296.61;1699780;79;21301;-49
2023/08/12 00:31:18;;;;;;;3.67;2.12;;;;;;;19.16;94.09;100304.41;1703903;81;21394;-49
2023/08/12 00:34:25;;;;;;;4.28;2.20;;;;;;;19.16;94.07;100298.00;1714290;80;21816;-48
2023/08/12 00:40:01;;;;;;;3.08;2.50;;;;;;;19.13;94.09;100297.94;1710979;80;21439;-49
2023/08/12 00:45:36;;;;;;;3.87;2.70;;;;;;;19.11;94.13;100295.92;1707665;80;21779;-50
2023/08/12 00:51:12;;;;;;;3.42;3.12;;;;;;;19.08;94.05;100299.17;1707954;80;21379;-49
2023/08/12 00:56:48;;;;;;;4.58;3.90;;;;;;;19.03;94.04;100296.24;1706689;80;21370;-48
2023/08/12 01:02:26;;;;;;;5.53;4.30;;;;;;;19.02;94.09;100302.02;1707187;80;21225;-49
2023/08/12 01:08:01;;;;;;;7.05;5.10;;;;;;;19.01;94.17;100302.55;1705325;80;21393;-49
2023/08/12 01:13:46;;;;;;;6.92;5.83;;;;;;;19.00;94.21;100304.18;1704174;80;21236;-49
2023/08/12 01:16:56;;;;;;;7.87;6.47;;;;;;;18.98;94.11;100300.25;1708981;79;21315;-50
2023/08/12 01:22:33;;;;;;;8.15;6.78;;;;;;;18.91;94.08;100293.95;1705155;81;21899;-49
2023/08/12 01:25:39;;;;;;;10.03;7.62;;;;;;;18.88;94.07;100297.19;1712506;79;21762;-49
2023/08/12 01:31:22;;;;;;;9.33;8.38;;;;;;;18.87;94.25;100295.48;1700029;80;21411;-50
2023/08/12 01:34:38;;;;;;;12.82;8.48;;;;;;;18.86;94.32;100293.80;1710979;78;21749;-50
2023/08/12 01:37:43;;;;;;;10.25;8.30;;;;;;;18.85;94.25;100303.17;1711689;79;21471;-50
2023/08/12 01:40:50;;;;;;;12.07;9.30;;;;;;;18.82;94.18;100306.41;1709190;80;21452;-49
2023/08/12 01:43:56;;;;;;;13.35;8.58;;;;;;;18.78;94.14;100309.88;1706344;81;21251;-51
2023/08/12 01:49:32;;;;;;;10.58;8.70;;;;;;;18.74;94.23;100308.66;1708386;80;21449;-50
2023/08/12 01:52:37;;;;;;;11.55;8.35;;;;;;;18.74;94.26;100308.11;1707163;78;21379;-48
2023/08/12 01:58:13;;;;;;;11.85;8.28;;;;;;;18.69;94.32;100312.14;1715619;80;21761;-50
2023/08/12 02:03:47;;;;;;;11.00;8.30;;;;;;;18.69;94.30;100320.45;1650731;81;21808;-51
2023/08/12 02:11:51;;;;;;;10.10;7.85;;;;;;;18.63;94.27;100324.12;1706345;80;21419;-51
2023/08/12 02:17:26;;;;;;;11.38;7.45;;;;;;;18.61;94.33;100320.75;1703325;80;21229;-51
2023/08/12 02:20:31;;;;;;;11.40;7.55;;;;;;;18.61;94.35;100326.30;1700572;79;21981;-52
2023/08/12 02:26:05;;;;;;;9.43;7.92;;;;;;;18.62;94.51;100339.60;1703593;80;21374;-51
2023/08/12 02:31:40;;;;;;;10.32;8.00;;;;;;;18.63;94.51;100350.47;1699376;80;21375;-51
2023/08/12 02:34:47;;;;;;;13.35;8.10;;;;;;;18.64;94.52;100360.50;1698497;80;21243;-50
2023/08/12 02:37:45;;;;;;;7.37;6.42;;;;;;;18.65;94.54;100363.57;1686397;80;21764;-52
2023/08/12 02:40:49;;;;;;;8.75;7.00;;;;;;;18.64;94.51;100363.27;1701623;79;21263;-52
2023/08/12 02:46:25;;;;;;;10.80;6.45;;;;;;;18.63;94.50;100368.48;1737118;79;21184;-52
2023/08/12 02:52:01;;;;;;;7.33;6.50;;;;;;;18.62;94.52;100369.58;1734018;80;21819;-50
2023/08/12 02:57:37;;;;;;;11.08;6.78;;;;;;;18.62;94.54;100372.35;1728624;80;21370;-51
2023/08/12 03:05:40;;;;;;;7.95;6.05;;;;;;;18.63;94.54;100385.13;1731801;82;21216;-53
2023/08/12 03:08:46;;;;;;;8.20;6.00;;;;;;;18.63;94.49;100387.08;1716361;80;21216;-53
2023/08/12 03:14:22;;;;;;;8.28;6.62;;;;;;;18.63;94.62;100393.45;1724921;80;21285;-51
2023/08/12 03:19:59;;;;;;;8.40;6.12;;;;;;;18.66;94.61;100386.05;1663436;81;21321;-50
2023/08/12 03:28:04;;;;;;;8.28;5.90;;;;;;;18.66;94.61;100380.51;1662719;81;21243;-53
2023/08/12 03:33:42;;;;;;;6.22;5.17;;;;;;;18.67;94.55;100383.61;1683344;81;21405;-52
2023/08/12 03:39:16;;;;;;;8.15;5.50;;;;;;;18.70;94.54;100373.97;1661477;81;21365;-52
2023/08/12 03:44:52;;;;;;;7.50;5.60;;;;;;;18.79;94.74;100398.97;1676646;82;21444;-51
2023/08/12 03:47:58;;;;;;;5.70;5.05;;;;;;;18.81;94.65;100396.27;1673138;80;21244;-52
2023/08/12 03:53:33;;;;;;;8.15;5.37;;;;;;;18.89;94.70;100402.91;1681123;82;21802;-52
2023/08/12 03:59:07;;;;;;;6.12;5.35;;;;;;;18.98;94.59;100405.69;1678121;80;21215;-53
2023/08/12 04:04:43;;;;;;;6.35;5.67;;;;;;;19.02;94.56;100412.48;1679822;82;21240;-53
2023/08/12 04:10:18;;;;;;;6.58;5.85;;;;;;;19.05;94.33;100413.41;1624488;84;21255;-52
2023/08/12 04:15:58;;;;;;;5.95;5.22;;;;;;;19.04;94.00;100400.59;1657625;82;21247;-52
2023/08/12 04:19:03;;;;;;;8.65;5.67;;;;;;;19.06;94.03;100400.36;1662122;82;21259;-53
2023/08/12 04:22:10;;;;;;;5.40;4.90;;;;;;;19.06;94.04;100401.22;1675737;81;21240;-53
2023/08/12 04:25:17;;;;;;;19.82;15.43;;;;;;;19.05;94.08;100403.70;1678873;80;21287;-53
2023/08/12 04:28:23;;;;;;;10.13;5.97;;;;;;;19.06;94.15;100412.84;1717097;81;21255;-53
2023/08/12 04:31:30;;;;;;;7.92;5.87;;;;;;;19.07;94.29;100423.75;1723371;79;21870;-51
2023/08/12 04:37:07;;;;;;;8.03;5.25;;;;;;;19.03;94.14;100428.58;1720945;78;21419;-52
2023/08/12 04:42:46;;;;;;;8.20;5.20;;;;;;;18.96;94.02;100418.10;1653041;83;21286;-53
2023/08/12 04:48:22;;;;;;;7.17;5.25;;;;;;;18.88;93.67;100427.58;1720065;80;21795;-54
2023/08/12 04:53:57;;;;;;;8.23;5.75;;;;;;;18.88;93.85;100423.95;1710478;80;21375;-52
2023/08/12 04:56:57;;;;;;;6.72;5.45;;;;;;;18.90;93.87;100427.34;1662185;80;21255;-51
2023/08/12 05:02:37;;;;;;;11.12;5.50;;;;;;;18.95;93.82;100426.95;1641756;82;21264;-53
2023/08/12 05:08:12;;;;;;;8.55;5.28;;;;;;;18.99;93.68;100426.83;1677806;80;21287;-54
2023/08/12 05:13:48;;;;;;;8.03;5.22;;;;;;;18.99;93.61;100437.92;1688500;81;21938;-53
2023/08/12 05:19:25;;;;;;;8.43;6.75;;;;;;;19.03;93.66;100449.39;1669773;82;21365;-54
2023/08/12 05:25:01;;;;;;;10.32;6.12;;;;;;;19.11;93.82;100456.89;1686181;82;21247;-53
2023/08/12 05:28:07;;;;;;;13.48;5.80;;;;;;;19.18;93.74;100459.07;1684775;81;21223;-51
2023/08/12 05:33:41;;;;;;;7.70;5.80;;;;;;;19.32;93.65;100465.34;1682119;82;21371;-50
2023/08/12 05:39:18;;;;;;;9.95;6.03;;;;;;;19.44;93.64;100471.81;1680120;82;21370;-53
2023/08/12 05:44:52;;;;;;;7.80;5.67;;;;;;;19.59;93.47;100471.44;1680459;82;21859;-51
2023/08/12 05:52:59;;;;;;;6.37;4.83;;;;;;;19.77;93.37;100472.83;1682641;81;21206;-51
2023/08/12 05:56:05;;;;;;;6.58;5.72;;;;;;;19.83;93.26;100474.66;1659942;82;21276;-52
2023/08/12 06:01:41;;;;;;;6.12;4.83;;;;;;;19.96;93.03;100477.27;1684640;81;21238;-53
2023/08/12 06:07:16;;;;;;;6.65;4.30;;;;;;;20.03;92.87;100483.58;1685693;80;21888;-54
2023/08/12 06:12:52;;;;;;;6.25;4.80;;;;;;;20.10;92.49;100482.42;1680117;81;21428;-52
2023/08/12 06:18:30;;;;;;;10.93;4.83;;;;;;;20.23;92.66;100486.98;1682177;80;21239;-52
2023/08/12 06:21:36;;;;;;;7.10;5.05;;;;;;;20.27;92.69;100480.70;1680798;81;21222;-53
2023/08/12 06:24:43;;;;;;;7.10;5.22;;;;;;;20.32;92.68;100479.45;1682238;82;21246;-53
2023/08/12 06:27:48;;;;;;;7.58;5.22;;;;;;;20.46;92.95;100474.53;1645498;82;21250;-52
2023/08/12 06:30:55;;;;;;;8.25;5.10;;;;;;;20.59;93.00;100485.45;1703201;80;21772;-52
2023/08/12 06:34:01;;;;;;;10.32;5.53;;;;;;;20.73;93.08;100471.63;1659590;81;21290;-52
2023/08/12 06:37:06;;;;;;;7.37;5.72;;;;;;;20.83;93.04;100481.06;1699519;82;21239;-53
2023/08/12 06:40:14;;;;;;;5.67;4.45;;;;;;;20.88;92.90;100480.38;1652373;80;21794;-53
2023/08/12 06:45:48;;;;;;;7.40;4.92;;;;;;;20.89;92.64;100478.41;1705861;79;21331;-53
2023/08/12 06:51:25;;;;;;;5.17;4.42;;;;;;;20.97;92.42;100491.48;1680950;80;21268;-53
2023/08/12 06:56:59;;;;;;;12.00;5.25;;;;;;;21.00;92.34;100490.14;1702102;80;21257;-52
2023/08/12 07:02:34;;;;;;;5.97;4.17;;;;;;;20.99;92.41;100485.67;1703825;81;21228;-54
2023/08/12 07:08:13;;;;;;;9.98;4.72;;;;;;;21.14;92.55;100484.63;1670026;80;21251;-53
2023/08/12 07:16:20;;;;;;;4.40;3.83;;;;;;;21.37;92.71;100481.32;1711953;79;21295;-55
2023/08/12 07:21:56;;;;;;;4.58;3.90;;;;;;;21.44;92.52;100484.80;1715629;79;21474;-51
2023/08/12 07:27:31;;;;;;;4.92;3.50;;;;;;;21.49;92.55;100498.86;1709263;80;21903;-54
2023/08/12 07:33:07;;;;;;;4.45;3.20;;;;;;;21.55;92.65;100502.63;1704053;80;21595;-53
2023/08/12 07:41:14;;;;;;;5.78;3.60;;;;;;;21.62;92.41;100504.71;1707088;79;21407;-53
2023/08/12 07:46:49;;;;;;;5.35;3.52;;;;;;;21.68;92.55;100501.80;1711749;79;21294;-53
2023/08/12 07:49:56;;;;;;;4.97;3.70;;;;;;;21.75;92.73;100508.13;1702107;80;21374;-53
2023/08/12 07:52:54;;;;;;;4.87;3.47;;;;;;;21.83;92.74;100515.26;1709772;79;21431;-53
2023/08/12 07:58:32;;;;;;;4.08;3.40;;;;;;;21.93;92.59;100516.84;1698763;82;21217;-53
2023/08/12 08:06:38;;;;;;;4.37;3.80;;;;;;;22.02;92.31;100525.15;1714399;80;21861;-55
2023/08/12 08:12:16;;;;;;;5.15;3.72;;;;;;;22.10;92.19;100535.92;1710372;80;21394;-55
2023/08/12 08:20:22;;;;;;;6.40;3.80;;;;;;;22.16;91.83;100532.99;1712127;79;22460;-53
2023/08/12 08:25:57;;;;;;;5.62;4.33;;;;;;;22.23;91.68;100536.47;1684442;81;21956;-54
2023/08/12 08:31:33;;;;;;;7.67;3.90;;;;;;;22.37;91.74;100549.59;1731363;79;21215;-54
2023/08/12 08:37:09;;;;;;;4.83;4.22;;;;;;;22.50;91.78;100548.44;1701383;80;21228;-54
2023/08/12 08:42:44;;;;;;;8.05;4.30;;;;;;;22.71;91.83;100550.53;1675269;81;21268;-54
2023/08/12 08:48:20;;;;;;;6.67;4.28;;;;;;;22.81;91.45;100556.31;1672664;82;21259;-53
2023/08/12 08:53:54;;;;;;;7.33;4.80;;;;;;;22.88;91.23;100559.23;1673204;83;22276;-52
2023/08/12 08:59:32;;;;;;;5.42;3.85;;;;;;;22.98;91.04;100555.78;1680239;82;21379;-55
2023/08/12 09:05:09;;;;;;;5.85;3.85;;;;;;;23.10;90.67;100560.77;1669034;81;21425;-52
2023/08/12 09:10:47;;;;;;;7.58;4.33;;;;;;;23.15;90.33;100558.06;1675905;80;21303;-54
2023/08/12 09:16:25;;;;;;;5.50;3.90;;;;;;;23.40;90.45;100560.73;1674254;80;21827;-53
2023/08/12 09:22:02;;;;;;;3.98;3.30;;;;;;;23.54;89.95;100568.23;1675718;82;21367;-53
2023/08/12 09:30:13;;;;;;;6.10;3.83;;;;;;;23.63;89.42;100571.45;1674977;82;21236;-54
2023/08/12 09:38:20;;;;;;;6.83;3.80;;;;;;;23.75;88.94;100567.98;1649064;81;21828;-54
2023/08/12 09:43:58;;;;;;;8.20;4.30;;;;;;;23.76;88.45;100576.11;1654320;83;21741;-54
2023/08/12 09:49:35;;;;;;;8.43;3.47;;;;;;;23.81;88.21;100585.98;1655118;81;21782;-53
2023/08/12 09:52:42;;;;;;;5.90;3.40;;;;;;;23.83;88.02;100582.38;1661794;82;21316;-54
2023/08/12 09:55:32;;;;;;;5.10;3.55;;;;;;;23.87;87.79;100578.49;1660641;82;21168;-54
2023/08/12 09:58:38;;;;;;;5.22;3.77;;;;;;;23.83;87.53;100579.59;1674079;80;21259;-55
2023/08/12 10:04:14;;;;;;;5.85;3.40;;;;;;;23.83;87.23;100580.13;1712008;80;21542;-54
2023/08/12 10:09:51;;;;;;;4.37;3.22;;;;;;;23.88;86.98;100579.63;1712523;79;21248;-54
2023/08/12 10:12:57;;;;;;;6.10;3.55;;;;;;;23.97;86.94;100586.53;1711524;79;21419;-54
2023/08/12 10:18:41;;;;;;;7.00;3.77;;;;;;;24.20;86.65;100577.88;1707530;78;21249;-54
2023/08/12 10:22:04;;;;;;;6.03;3.22;;;;;;;24.24;86.50;100582.41;1716503;79;21385;-55
2023/08/12 10:25:11;;;;;;;5.62;3.67;;;;;;;24.30;86.28;100577.16;1717113;77;21262;-55
2023/08/12 10:28:16;;;;;;;5.65;3.55;;;;;;;24.37;86.14;100598.24;1711060;78;21240;-55
2023/08/12 10:31:23;;;;;;;7.20;3.50;;;;;;;24.47;86.03;100588.58;1719240;79;21211;-54
2023/08/12 10:37:03;;;;;;;4.25;3.30;;;;;;;24.60;85.45;100611.98;1700537;81;21255;-54
2023/08/12 10:45:26;;;;;;;6.12;3.72;;;;;;;24.75;84.46;100612.17;1702643;79;21824;-54
2023/08/12 10:48:31;;;;;;;8.93;3.65;;;;;;;24.75;84.28;100613.58;1687368;82;21273;-54
2023/08/12 10:51:53;;;;;;;4.72;3.40;;;;;;;24.79;84.06;100614.77;1707069;80;21547;-54
2023/08/12 10:55:01;;;;;;;5.25;3.60;;;;;;;24.94;84.03;100622.48;1703241;82;21653;-54
2023/08/12 10:58:08;;;;;;;6.15;3.02;;;;;;;25.09;83.93;100614.22;1708200;80;21261;-55
2023/08/12 11:01:18;;;;;;;5.53;3.67;;;;;;;25.16;83.40;100614.02;1704967;80;21768;-55
2023/08/12 11:06:56;;;;;;;5.95;3.30;;;;;;;25.16;82.62;100614.02;1719304;77;21225;-54
2023/08/12 11:12:40;;;;;;;5.12;2.90;;;;;;;25.33;82.39;100628.74;1673773;80;21247;-53
2023/08/12 11:15:52;;;;;;;4.53;3.05;;;;;;;25.43;82.18;100614.86;1690804;81;21259;-54
2023/08/12 11:18:57;;;;;;;10.55;3.42;;;;;;;25.50;81.78;100626.71;1706908;80;21273;-54
2023/08/12 11:24:33;;;;;;;6.70;3.15;;;;;;;25.75;81.60;100624.92;1708323;82;21230;-53
2023/08/12 11:27:50;;;;;;;6.12;2.95;;;;;;;25.89;81.47;100623.92;1712276;80;21392;-53
2023/08/12 11:33:26;;;;;;;5.42;3.12;;;;;;;25.90;80.39;100636.27;1708699;80;21238;-54
2023/08/12 11:39:01;;;;;;;4.90;3.17;;;;;;;26.00;80.08;100634.13;1685780;80;21430;-55
2023/08/12 11:44:37;;;;;;;6.35;3.17;;;;;;;25.89;78.89;100628.13;1714282;80;21259;-53
2023/08/12 11:47:44;;;;;;;5.53;3.25;;;;;;;25.85;78.77;100626.95;1722777;80;21285;-53
2023/08/12 11:50:53;;;;;;;3.70;2.92;;;;;;;25.85;78.47;100635.38;1657146;81;21228;-54
2023/08/12 11:53:59;;;;;;;7.12;3.33;;;;;;;25.85;78.11;100633.42;1682165;78;21234;-54
2023/08/12 11:57:06;;;;;;;4.45;3.10;;;;;;;25.87;77.97;100628.95;1680163;81;21231;-53
2023/08/12 12:03:02;;;;;;;6.17;2.77;;;;;;;25.99;77.47;100650.08;1673710;81;22066;-55
2023/08/12 12:06:07;;;;;;;5.70;2.77;;;;;;;26.05;77.20;100634.16;1677900;80;21220;-54
2023/08/12 12:09:14;;;;;;;3.47;2.50;;;;;;;26.08;76.76;100644.84;1677172;82;21733;-53
2023/08/12 12:12:22;;;;;;;4.20;2.90;;;;;;;26.09;76.34;100642.31;1683291;81;21264;-54
2023/08/12 12:15:29;;;;;;;4.70;2.60;;;;;;;26.06;75.73;100642.31;1672587;82;21292;-53
2023/08/12 12:18:36;;;;;;;4.92;2.98;;;;;;;25.97;75.22;100648.09;1679769;83;21251;-54
2023/08/12 12:24:14;;;;;;;6.47;3.77;;;;;;;25.88;74.70;100643.25;1672722;80;21231;-55
2023/08/12 12:29:48;;;;;;;4.47;2.67;;;;;;;25.84;74.17;100637.91;1667437;81;21247;-54
2023/08/12 12:35:25;;;;;;;5.72;3.62;;;;;;;25.88;73.82;100639.05;1643949;82;21925;-55
2023/08/12 12:38:32;;;;;;;5.80;3.33;;;;;;;25.90;73.59;100641.03;1691200;79;21752;-54
2023/08/12 12:44:08;;;;;;;4.60;3.37;;;;;;;25.93;72.98;100627.31;1691970;79;21291;-54
2023/08/12 12:49:46;;;;;;;4.12;3.33;;;;;;;25.98;72.43;100632.11;1692935;79;21247;-54
2023/08/12 12:55:23;;;;;;;5.87;3.00;;;;;;;25.85;71.56;100646.59;1702386;81;21221;-53
2023/08/12 13:00:58;;;;;;;3.95;3.27;;;;;;;25.69;70.90;100663.05;1704991;80;21256;-55
2023/08/12 13:06:34;;;;;;;4.47;3.00;;;;;;;25.63;70.31;100658.48;1705497;80;21965;-54
2023/08/12 13:12:10;;;;;;;4.67;2.55;;;;;;;25.62;69.91;100668.02;1709306;80;21252;-54
2023/08/12 13:15:16;;;;;;;6.33;3.00;;;;;;;25.62;69.68;100655.41;1704028;80;21590;-53
2023/08/12 13:20:51;;;;;;;6.33;2.72;;;;;;;25.65;68.99;100664.68;1645889;82;21239;-54
2023/08/12 13:28:59;;;;;;;9.33;3.55;;;;;;;25.58;68.06;100664.90;1710265;80;21869;-55
2023/08/12 13:34:33;;;;;;;6.12;3.12;;;;;;;25.51;67.48;100667.64;1708813;80;21908;-55
2023/08/12 13:37:40;;;;;;;4.03;2.75;;;;;;;25.53;67.34;100678.05;1703291;80;21381;-52
2023/08/12 13:40:39;;;;;;;5.20;2.67;;;;;;;25.53;67.12;100675.24;1705389;80;21291;-54
2023/08/12 13:46:15;;;;;;;4.37;2.55;;;;;;;25.54;66.49;100681.13;1714103;80;21210;-55
2023/08/12 13:51:52;;;;;;;3.22;2.45;;;;;;;25.55;65.96;100689.81;1674996;81;21279;-53
2023/08/12 13:57:28;;;;;;;4.42;2.40;;;;;;;25.59;65.30;100706.42;1625665;82;21285;-53
2023/08/12 14:00:34;;;;;;;5.20;2.40;;;;;;;25.55;64.97;100701.03;1674374;81;21211;-53
2023/08/12 14:06:12;;;;;;;4.60;2.67;;;;;;;25.48;64.28;100722.86;1669124;82;21240;-53
2023/08/12 14:11:48;;;;;;;6.97;3.10;;;;;;;25.35;63.70;100701.70;1664246;82;21193;-54
2023/08/12 14:20:02;;;;;;;4.42;2.47;;;;;;;25.28;63.05;100709.97;1654968;81;21264;-54
2023/08/12 14:25:34;;;;;;;4.97;2.70;;;;;;;25.22;62.56;100708.23;1666831;82;21765;-53
2023/08/12 14:33:39;;;;;;;4.95;2.62;;;;;;;25.14;62.01;100715.16;1691943;81;21760;-54
2023/08/12 14:36:45;;;;;;;4.53;3.17;;;;;;;25.15;61.90;100711.81;1657861;83;21340;-54
2023/08/12 14:42:19;;;;;;;5.72;3.10;;;;;;;25.12;61.55;100705.34;1691476;81;21335;-55
2023/08/12 14:47:53;;;;;;;6.03;3.40;;;;;;;25.11;61.19;100724.64;1685372;81;21327;-55
2023/08/12 14:53:29;;;;;;;4.00;2.70;;;;;;;25.02;60.62;100727.91;1688565;81;21240;-54
2023/08/12 14:56:35;;;;;;;4.15;2.60;;;;;;;24.96;60.39;100724.77;1712075;79;21405;-59
2023/08/12 15:02:10;;;;;;;8.70;5.30;;;;;;;25.16;59.92;100737.32;1709116;80;21211;-54
2023/08/12 15:07:44;;;;;;;11.38;6.78;;;;;;;25.11;59.46;100733.05;1719954;80;21323;-54
2023/08/12 15:13:21;;;;;;;5.83;3.60;;;;;;;25.05;59.26;100745.59;1721288;80;21243;-56
2023/08/12 15:18:58;;;;;;;3.85;2.80;;;;;;;24.95;59.05;100759.50;1710245;80;21597;-55
2023/08/12 15:24:33;;;;;;;8.75;4.30;;;;;;;24.70;58.86;100763.37;1696031;80;21263;-54
2023/08/12 15:30:08;;;;;;;6.62;4.00;;;;;;;24.59;58.64;100767.06;1720730;79;21820;-54
2023/08/12 15:35:43;;;;;;;6.00;3.22;;;;;;;24.65;58.45;100763.26;1689644;80;21263;-55
2023/08/12 15:41:23;;;;;;;6.90;2.83;;;;;;;24.60;58.23;100759.52;1624259;83;21288;-54
2023/08/12 15:47:07;;;;;;;4.53;2.80;;;;;;;24.65;58.01;100775.86;1671757;80;22052;-55
2023/08/12 15:50:15;;;;;;;6.20;3.08;;;;;;;24.67;57.85;100772.83;1674299;80;21320;-55
2023/08/12 15:53:21;;;;;;;7.45;4.00;;;;;;;24.66;57.81;100775.28;1676093;81;21262;-54
2023/08/12 15:56:25;;;;;;;6.97;2.98;;;;;;;24.67;57.79;100780.66;1691434;80;21253;-55
2023/08/12 15:59:33;;;;;;;5.67;2.90;;;;;;;24.70;57.76;100779.31;1684353;80;21252;-55
2023/08/12 16:02:38;;;;;;;4.70;3.10;;;;;;;24.80;57.45;100783.09;1679170;81;22195;-53
2023/08/12 16:08:14;;;;;;;8.08;3.10;;;;;;;24.62;57.14;100779.17;1700311;81;21254;-55
2023/08/12 16:13:50;;;;;;;5.47;3.95;;;;;;;24.48;57.11;100784.00;1686774;80;21219;-54
2023/08/12 16:19:26;;;;;;;6.75;3.27;;;;;;;24.39;56.92;100789.17;1698407;80;21578;-53
2023/08/12 16:27:31;;;;;;;12.00;5.67;;;;;;;24.13;56.68;100796.87;1688586;81;21378;-54
2023/08/12 16:33:08;;;;;;;13.70;6.53;;;;;;;23.90;56.60;100808.17;1705637;80;21272;-55
2023/08/12 16:36:13;;;;;;;11.60;6.85;;;;;;;23.80;56.57;100806.58;1696127;80;21243;-54
2023/08/12 16:41:49;;;;;;;14.38;6.12;;;;;;;23.57;56.54;100816.50;1705148;81;21236;-54
2023/08/12 16:47:25;;;;;;;8.98;5.15;;;;;;;23.34;56.61;100824.42;1653654;80;21344;-55
2023/08/12 16:53:03;;;;;;;10.50;5.40;;;;;;;23.11;56.61;100826.41;1706390;80;21268;-54
2023/08/12 16:58:40;;;;;;;9.95;7.30;;;;;;;22.88;56.74;100821.71;1705907;79;21322;-53
2023/08/12 17:04:15;;;;;;;11.97;6.25;;;;;;;22.58;56.84;100825.20;1697506;80;21287;-54
2023/08/12 17:09:52;;;;;;;9.73;4.47;;;;;;;22.34;56.97;100825.42;1682101;83;21891;-55
2023/08/12 17:15:28;;;;;;;5.72;4.15;;;;;;;22.10;57.25;100827.34;1690940;80;21261;-53
2023/08/12 17:21:04;;;;;;;12.25;5.47;;;;;;;21.85;57.44;100845.64;1743540;79;21728;-54
2023/08/12 17:26:40;;;;;;;6.95;4.17;;;;;;;21.61;57.76;100846.60;1730001;80;21208;-54
2023/08/12 17:34:45;;;;;;;8.53;4.22;;;;;;;21.27;58.20;100850.63;1706299;79;21535;-54
2023/08/12 17:40:22;;;;;;;10.60;5.12;;;;;;;21.05;58.67;100861.41;1677549;79;21693;-53
2023/08/12 17:45:56;;;;;;;14.75;5.65;;;;;;;20.85;59.05;100857.98;1704656;80;21800;-54
2023/08/12 17:49:03;;;;;;;9.98;5.20;;;;;;;20.75;59.21;100851.55;1694528;80;21591;-54
2023/08/12 17:57:09;;;;;;;10.48;6.03;;;;;;;20.47;59.83;100873.99;1706206;80;21832;-54
2023/08/12 18:02:43;;;;;;;8.05;5.08;;;;;;;20.29;60.39;100873.93;1699545;82;21224;-55
2023/08/12 18:08:18;;;;;;;12.07;6.10;;;;;;;20.16;60.89;100876.81;1702906;79;21276;-54
2023/08/12 18:13:53;;;;;;;20.05;8.73;;;;;;;20.00;61.18;100877.33;1693779;79;21379;-54
2023/08/12 18:19:29;;;;;;;28.62;12.18;;;;;;;19.83;61.46;100868.70;1687651;81;21297;-54
2023/08/12 18:22:35;;;;;;;39.23;14.20;;;;;;;19.75;61.62;100875.05;1696624;80;21238;-54
2023/08/12 18:28:11;;;;;;;33.25;14.63;;;;;;;19.57;62.08;100876.35;1703522;79;21220;-54
2023/08/12 18:33:47;;;;;;;33.10;13.68;;;;;;;19.45;62.57;100866.47;1687413;80;21643;-54
2023/08/12 18:41:53;;;;;;;34.78;12.95;;;;;;;19.27;63.16;100863.00;1674119;81;21206;-54
2023/08/12 18:44:58;;;;;;;30.30;14.28;;;;;;;19.21;63.35;100863.89;1680641;81;21666;-54
2023/08/12 18:50:34;;;;;;;55.35;21.45;;;;;;;19.10;63.80;100859.55;1676966;81;21272;-53
2023/08/12 18:56:11;;;;;;;164.25;92.95;;;;;;;19.01;64.22;100850.60;1702951;81;21919;-54
2023/08/12 19:01:46;;;;;;;85.97;32.15;;;;;;;18.94;64.64;100854.48;1726136;81;21712;-54
2023/08/12 19:09:52;;;;;;;50.60;20.68;;;;;;;18.82;65.20;100851.52;1739375;78;21291;-54
2023/08/12 19:15:29;;;;;;;39.73;19.00;;;;;;;18.74;65.51;100851.75;1706731;81;21218;-55
2023/08/12 19:23:33;;;;;;;42.13;17.85;;;;;;;18.64;66.04;100858.30;1706366;80;21326;-55
2023/08/12 19:29:09;;;;;;;44.58;19.50;;;;;;;18.56;66.27;100865.47;1677511;81;21246;-56
2023/08/12 19:32:15;;;;;;;51.45;20.72;;;;;;;18.54;66.37;100866.20;1655708;83;21304;-55
2023/08/12 19:37:51;;;;;;;50.55;22.58;;;;;;;18.43;66.69;100854.38;1687895;80;21303;-55
2023/08/12 19:43:27;;;;;;;47.38;21.62;;;;;;;18.32;66.80;100853.62;1692554;80;21228;-55
2023/08/12 19:51:32;;;;;;;44.90;21.30;;;;;;;18.22;67.32;100860.67;1712021;80;21227;-54
2023/08/12 19:54:38;;;;;;;45.23;22.65;;;;;;;18.18;67.45;100856.08;1704561;78;21730;-54
2023/08/12 20:02:42;;;;;;;34.75;17.85;;;;;;;18.10;68.00;100853.52;1721874;81;21231;-54
2023/08/12 20:05:48;;;;;;;27.45;17.17;;;;;;;18.08;68.17;100865.86;1677434;79;21251;-54
2023/08/12 20:11:21;;;;;;;20.88;14.68;;;;;;;18.02;68.40;100867.59;1704025;80;21867;-54
2023/08/12 20:16:56;;;;;;;20.15;12.03;;;;;;;17.93;68.53;100873.02;1701078;82;21248;-53
2023/08/12 20:22:31;;;;;;;22.40;13.03;;;;;;;17.89;68.88;100888.34;1643930;83;21259;-55
2023/08/12 20:28:07;;;;;;;11.83;8.70;;;;;;;17.83;69.07;100904.42;1702119;82;21764;-52
2023/08/12 20:33:41;;;;;;;12.98;6.58;;;;;;;17.63;69.12;100896.61;1701100;81;21383;-53
2023/08/12 20:39:17;;;;;;;9.15;6.20;;;;;;;17.55;69.47;100899.57;1707200;80;21528;-54
2023/08/12 20:42:23;;;;;;;15.72;5.47;;;;;;;17.54;69.66;100898.70;1714989;80;21597;-53
2023/08/12 20:47:59;;;;;;;10.58;5.85;;;;;;;17.51;70.02;100897.74;1710881;79;21267;-53
2023/08/12 20:53:34;;;;;;;8.40;5.50;;;;;;;17.52;70.30;100901.37;1709518;80;21811;-54
2023/08/12 20:56:39;;;;;;;13.22;5.83;;;;;;;17.49;70.28;100898.47;1689214;79;21291;-54
2023/08/12 21:02:17;;;;;;;10.28;6.30;;;;;;;17.44;70.37;100920.91;1706666;80;21229;-53
2023/08/12 21:10:20;;;;;;;12.15;5.25;;;;;;;17.33;70.64;100912.64;1711328;81;21409;-53
2023/08/12 21:15:56;;;;;;;7.28;5.28;;;;;;;17.30;70.84;100917.77;1709620;79;21362;-53
2023/08/12 21:24:02;;;;;;;10.88;5.67;;;;;;;17.28;71.14;100927.63;1707595;79;21753;-52
2023/08/12 21:29:37;;;;;;;14.18;4.87;;;;;;;17.22;71.17;100921.53;1710247;79;21231;-54
2023/08/12 21:35:14;;;;;;;9.65;5.50;;;;;;;17.20;71.45;100920.91;1713591;80;21753;-53
2023/08/12 21:43:20;;;;;;;10.32;5.85;;;;;;;17.19;71.82;100922.47;1697903;80;21730;-54
2023/08/12 21:48:55;;;;;;;15.58;9.90;;;;;;;17.18;71.78;100927.17;1688228;81;21300;-53
2023/08/12 21:54:32;;;;;;;9.53;5.85;;;;;;;17.18;71.95;100923.54;1677680;80;21764;-53
2023/08/12 22:00:06;;;;;;;12.43;6.75;;;;;;;17.21;72.23;100918.98;1680747;80;21276;-54
2023/08/12 22:05:42;;;;;;;10.35;6.00;;;;;;;17.31;72.49;100907.87;1680378;81;21224;-54
2023/08/12 22:11:18;;;;;;;10.85;5.62;;;;;;;17.43;72.75;100913.64;1678953;79;21347;-54
2023/08/12 22:16:53;;;;;;;8.58;5.95;;;;;;;17.55;72.98;100907.87;1680238;81;21236;-54
2023/08/12 22:19:59;;;;;;;10.10;5.70;;;;;;;17.59;73.06;100905.86;1677812;80;21268;-53
2023/08/12 22:23:04;;;;;;;9.58;5.00;;;;;;;17.64;73.16;100908.86;1666262;81;21642;-54
2023/08/12 22:28:39;;;;;;;8.28;5.17;;;;;;;17.69;73.17;100902.70;1678143;81;21331;-54
2023/08/12 22:31:46;;;;;;;8.33;5.60;;;;;;;17.70;73.19;100906.64;1674185;82;21398;-54
2023/08/12 22:39:50;;;;;;;9.93;5.90;;;;;;;17.77;73.41;100899.73;1680349;81;21247;-54
2023/08/12 22:45:26;;;;;;;7.80;5.12;;;;;;;17.80;73.51;100904.84;1683343;81;21281;-53
2023/08/12 22:48:32;;;;;;;8.43;5.37;;;;;;;17.81;73.55;100905.16;1656779;83;21401;-54
2023/08/12 22:54:15;;;;;;;7.08;5.40;;;;;;;17.86;73.74;100902.09;1671283;80;21421;-54
2023/08/12 22:57:22;;;;;;;7.78;5.42;;;;;;;17.87;73.78;100898.25;1665720;83;21236;-54
2023/08/12 23:00:28;;;;;;;8.80;5.40;;;;;;;17.89;73.90;100893.88;1686211;80;21622;-54
2023/08/12 23:03:34;;;;;;;8.30;5.40;;;;;;;17.91;73.99;100897.30;1685657;80;21244;-53
2023/08/12 23:09:08;;;;;;;9.93;6.33;;;;;;;17.87;74.05;100901.55;1682155;81;21244;-54
2023/08/12 23:14:44;;;;;;;11.65;6.42;;;;;;;17.80;74.04;100902.08;1661988;82;21405;-54